Aérodrome :
LOGIN :

S'inscrire | Disclaimer

   EN    FR    IT 

 










Légende :    VFR   VFR Marginal   IFR   IFR Intensif   IFR Très Intensif
Visi : 
Plafond : 
>= 8 km
>= 3000ft
5 à 8 km
1000 à 3000 ft
1500m à 5 km
500 à 1000 ft
800 à 1500m
200 à 500 ft
< 800m
< 200 ft
Symboles :   Orages  Brouillard  Fortes neiges  Fortes précipitations  Vent > 20 kt
SIGMETs :   Divers  Orages  Givrage  Turbulence  Onde Orograph.  Cendres Volcan.






- Altitude de l'aérodrome : 160 ft
- Code IATA : FMO


EDDG - Münster Osnabrück Int.

DERNIER METAR :
  • 221820Z 16003KT 130V190 9999 FEW019 BKN024 11/10 Q1024 NOSIG

METARs EXPIRÉS :
  • 221750Z 16003KT 9999 FEW019 BKN024 11/11 Q1024 NOSIG
  • 221720Z 15003KT 9999 FEW026 11/10 Q1024 NOSIG
  • 221650Z 13002KT 9999 FEW023 12/11 Q1023 NOSIG
  • 221620Z VRB02KT 9999 FEW028 13/11 Q1023 NOSIG
  • 221550Z 16003KT 130V200 9999 FEW025 BKN036 14/11 Q1023 NOSIG

TAF TAF EDDG
Valide du 22 à 18h jusqu'au 23 à 18h UTC


221700Z 2218/2318 VRB03KT 9999 SCT025
BECMG 2219/2222 3500 BR
TEMPO 2222/2308 0600 FG BKN013
BECMG 2308/2311 08005KT 8000



MET'MAP, la Météo Aéronautique d'un coup d'oeil ! - Copyright ORBIFLY Décembre 2007 - Disclaimer

ORBIFLY MET'MAP TEAM :

Programmation & Développement : Alexandra Zaïnal
Conception & Développement : Baudouin d'Aumeries
Co-Programmation & Développement : Marc-Olivier Méhu
Soutien technique & logistique : Manuel Goepfert

Contact : metmap@orbifly.com




SOURCES & CREDITS :

   NOAA